createdAt,value
2022-07-29T00:02:02.543Z,15.90
2022-07-29T00:04:32.588Z,15.90
2022-07-29T00:07:02.629Z,15.82
2022-07-29T00:09:34.091Z,15.76
2022-07-29T00:12:26.125Z,15.78
2022-07-29T00:14:58.013Z,15.75
2022-07-29T00:17:28.485Z,15.77
2022-07-29T00:19:59.939Z,15.79
2022-07-29T00:22:29.940Z,15.80
2022-07-29T00:25:01.513Z,15.69
2022-07-29T00:27:31.533Z,15.66
2022-07-29T00:30:01.400Z,15.60
2022-07-29T00:32:31.270Z,15.59
2022-07-29T00:35:18.231Z,15.59
2022-07-29T00:37:48.162Z,15.62
2022-07-29T00:40:19.691Z,15.53
2022-07-29T00:42:55.075Z,15.49
2022-07-29T00:45:25.229Z,15.40
2022-07-29T00:47:55.191Z,15.32
2022-07-29T00:53:05.453Z,15.28
2022-07-29T00:55:35.437Z,15.26
2022-07-29T00:58:05.663Z,15.21
2022-07-29T01:00:35.767Z,15.21
2022-07-29T01:03:06.132Z,15.18
2022-07-29T01:05:51.134Z,15.21
2022-07-29T01:08:25.011Z,15.19
2022-07-29T01:10:55.787Z,15.11
2022-07-29T01:13:26.616Z,15.08
2022-07-29T01:16:04.357Z,15.08
2022-07-29T01:18:39.119Z,15.10
2022-07-29T01:21:49.948Z,15.09
2022-07-29T01:24:43.509Z,15.02
2022-07-29T01:27:42.029Z,14.99
2022-07-29T01:30:15.679Z,15.01
2022-07-29T01:32:50.691Z,14.98
2022-07-29T01:35:26.320Z,14.96
2022-07-29T01:38:04.111Z,14.88
2022-07-29T01:40:43.874Z,14.79
2022-07-29T01:43:20.413Z,14.80
2022-07-29T01:46:01.757Z,14.82
2022-07-29T01:48:42.333Z,14.66
2022-07-29T01:51:21.137Z,14.65
2022-07-29T01:53:58.510Z,14.73
2022-07-29T01:56:33.964Z,14.76
2022-07-29T01:59:07.272Z,14.65
2022-07-29T02:01:39.853Z,14.66
2022-07-29T02:04:29.266Z,14.67
2022-07-29T02:07:06.670Z,14.66
2022-07-29T02:09:39.608Z,14.66
2022-07-29T02:12:11.230Z,14.59
2022-07-29T02:14:47.746Z,14.50
2022-07-29T02:17:26.900Z,14.54
2022-07-29T02:20:01.168Z,14.58
2022-07-29T02:22:34.071Z,14.62
2022-07-29T02:25:05.250Z,14.60
2022-07-29T02:27:38.625Z,14.51
2022-07-29T02:30:12.854Z,14.42
2022-07-29T02:32:47.214Z,14.41
2022-07-29T02:35:18.979Z,14.28
2022-07-29T02:38:10.835Z,14.25
2022-07-29T02:40:43.679Z,14.31
2022-07-29T02:43:14.909Z,14.33
2022-07-29T02:45:46.248Z,14.36
2022-07-29T02:48:29.507Z,14.32
2022-07-29T02:51:09.676Z,14.13
2022-07-29T02:53:45.848Z,14.09
2022-07-29T02:56:20.209Z,14.12
2022-07-29T02:58:57.629Z,14.11
2022-07-29T03:01:31.059Z,14.02
2022-07-29T03:04:07.327Z,13.91
2022-07-29T03:06:39.095Z,13.92
2022-07-29T03:09:13.617Z,14.01
2022-07-29T03:11:50.422Z,14.03
2022-07-29T03:14:22.131Z,14.02
2022-07-29T03:16:53.690Z,14.02
2022-07-29T03:19:25.566Z,14.05
2022-07-29T03:21:55.568Z,14.05
2022-07-29T03:24:34.106Z,14.04
2022-07-29T03:27:05.029Z,14.00
2022-07-29T03:29:36.230Z,13.91
2022-07-29T03:32:09.044Z,13.95
2022-07-29T03:34:41.772Z,13.99
2022-07-29T03:37:12.110Z,14.02
2022-07-29T03:39:45.190Z,14.03
2022-07-29T03:42:18.455Z,14.01
2022-07-29T03:44:51.739Z,13.94
2022-07-29T03:47:47.960Z,13.96
2022-07-29T03:50:22.739Z,14.03
2022-07-29T03:54:07.855Z,14.14
2022-07-29T03:56:47.491Z,14.17
2022-07-29T03:59:18.886Z,14.15
2022-07-29T04:01:50.186Z,14.18
2022-07-29T04:04:20.706Z,14.22
2022-07-29T04:06:50.827Z,14.28
2022-07-29T04:09:22.398Z,14.33
2022-07-29T04:12:02.523Z,14.34
2022-07-29T04:14:35.733Z,14.42
2022-07-29T04:17:07.411Z,14.50
2022-07-29T04:19:37.750Z,14.60
2022-07-29T04:22:07.735Z,14.70
2022-07-29T04:24:41.845Z,14.80
2022-07-29T04:27:13.987Z,14.94
2022-07-29T04:29:55.977Z,15.10
2022-07-29T04:32:27.908Z,15.26
2022-07-29T04:34:57.881Z,15.41
2022-07-29T04:37:27.731Z,15.55
2022-07-29T04:39:59.310Z,15.73
2022-07-29T04:42:29.432Z,15.91
2022-07-29T04:45:01.367Z,16.04
2022-07-29T04:47:31.393Z,16.21
2022-07-29T04:50:01.288Z,16.36
2022-07-29T04:52:31.305Z,16.54
2022-07-29T04:55:02.745Z,16.73
2022-07-29T04:57:32.789Z,16.92
2022-07-29T05:00:02.789Z,17.11
2022-07-29T05:02:32.803Z,17.28
2022-07-29T05:05:02.900Z,17.46
2022-07-29T05:07:32.909Z,17.61
2022-07-29T05:10:04.449Z,17.79
2022-07-29T05:12:34.326Z,17.98
2022-07-29T05:15:04.236Z,18.18
2022-07-29T05:17:35.076Z,18.38
2022-07-29T05:20:05.312Z,18.53
2022-07-29T05:22:35.355Z,18.73
2022-07-29T05:25:09.301Z,18.88
2022-07-29T05:27:39.716Z,19.07
2022-07-29T05:30:11.497Z,19.27
2022-07-29T05:32:41.431Z,19.49
2022-07-29T05:35:12.736Z,19.68
2022-07-29T05:37:43.088Z,19.90
2022-07-29T05:40:14.971Z,20.13
2022-07-29T05:42:44.949Z,20.32
2022-07-29T05:45:15.167Z,20.52
2022-07-29T05:47:45.031Z,20.72
2022-07-29T05:50:15.137Z,20.92
2022-07-29T05:52:45.079Z,21.16
2022-07-29T05:55:16.779Z,21.43
2022-07-29T05:57:46.925Z,21.71
2022-07-29T06:00:17.970Z,21.97
2022-07-29T06:02:47.852Z,22.22
2022-07-29T06:05:19.131Z,22.40
2022-07-29T06:07:50.874Z,22.57
2022-07-29T06:10:26.086Z,22.79
2022-07-29T06:12:56.248Z,22.99
2022-07-29T06:15:26.488Z,23.10
2022-07-29T06:17:59.364Z,23.22
2022-07-29T06:20:32.543Z,23.29
2022-07-29T06:23:05.769Z,23.49
2022-07-29T06:25:38.028Z,23.58
2022-07-29T06:28:08.205Z,23.72
2022-07-29T06:30:38.229Z,23.90
2022-07-29T06:33:08.364Z,24.08
2022-07-29T06:35:41.801Z,24.12
2022-07-29T06:38:30.137Z,24.24
2022-07-29T06:41:03.940Z,24.34
2022-07-29T06:43:51.741Z,24.36
2022-07-29T06:46:25.782Z,24.40
2022-07-29T06:48:56.180Z,24.53
2022-07-29T06:54:03.770Z,24.73
2022-07-29T06:56:38.272Z,24.83
2022-07-29T06:59:09.120Z,25.07
2022-07-29T07:01:40.352Z,25.15
2022-07-29T07:04:10.854Z,25.11
2022-07-29T07:06:41.214Z,25.13
2022-07-29T07:09:12.629Z,25.31
2022-07-29T07:11:42.667Z,25.52
2022-07-29T07:14:12.506Z,25.70
2022-07-29T07:16:42.628Z,25.59
2022-07-29T07:19:12.585Z,25.64
2022-07-29T07:21:44.210Z,25.78
2022-07-29T07:24:15.779Z,25.96
2022-07-29T07:26:46.046Z,26.03
2022-07-29T07:29:15.970Z,26.16
2022-07-29T07:31:46.948Z,26.27
2022-07-29T07:34:17.132Z,26.28
2022-07-29T07:36:58.792Z,26.39
2022-07-29T07:39:30.188Z,26.48
2022-07-29T07:42:00.209Z,26.53
2022-07-29T07:44:30.323Z,26.67
2022-07-29T07:47:03.864Z,26.50
2022-07-29T07:49:42.641Z,26.39
2022-07-29T07:52:15.227Z,26.58
2022-07-29T07:54:46.907Z,26.58
2022-07-29T07:57:17.635Z,26.72
2022-07-29T07:59:47.831Z,26.58
2022-07-29T08:02:17.959Z,26.50
2022-07-29T08:04:47.964Z,26.56
2022-07-29T08:07:18.043Z,26.58
2022-07-29T08:09:49.427Z,26.81
2022-07-29T08:12:19.455Z,26.86
2022-07-29T08:14:49.379Z,26.96
2022-07-29T08:17:19.291Z,27.27
2022-07-29T08:19:49.726Z,27.54
2022-07-29T08:22:19.626Z,27.41
2022-07-29T08:24:55.799Z,27.24
2022-07-29T08:27:43.062Z,27.32
2022-07-29T08:30:14.747Z,26.95
2022-07-29T08:32:53.909Z,27.34
2022-07-29T08:35:24.743Z,27.69
2022-07-29T08:37:54.764Z,28.01
2022-07-29T08:40:30.535Z,28.12
2022-07-29T08:43:08.467Z,28.33
2022-07-29T08:45:48.643Z,28.42
2022-07-29T08:48:21.350Z,28.52
2022-07-29T08:50:58.502Z,28.62
2022-07-29T08:53:31.915Z,28.72
2022-07-29T08:56:03.938Z,28.39
2022-07-29T08:58:38.280Z,28.46
2022-07-29T09:01:12.399Z,28.58
2022-07-29T09:03:45.220Z,28.69
2022-07-29T09:06:18.247Z,28.34
2022-07-29T09:08:48.636Z,28.50
2022-07-29T09:11:20.251Z,28.82
2022-07-29T09:13:50.968Z,28.23
2022-07-29T09:16:43.845Z,28.22
2022-07-29T09:19:26.728Z,28.29
2022-07-29T09:22:03.224Z,28.57
2022-07-29T09:24:48.702Z,29.03
2022-07-29T09:27:30.191Z,29.23
2022-07-29T09:30:01.982Z,29.31
2022-07-29T09:32:32.407Z,29.47
2022-07-29T09:35:22.390Z,29.66
2022-07-29T09:37:53.084Z,29.81
2022-07-29T09:40:25.985Z,29.68
2022-07-29T09:42:58.589Z,29.65
2022-07-29T09:45:34.953Z,29.67
2022-07-29T09:48:19.765Z,29.33
2022-07-29T09:54:05.307Z,29.11
2022-07-29T09:56:45.283Z,29.59
2022-07-29T09:59:15.304Z,29.68
2022-07-29T10:01:46.085Z,29.88
2022-07-29T10:04:16.190Z,30.02
2022-07-29T10:07:04.882Z,29.98
2022-07-29T10:09:37.857Z,30.06
2022-07-29T10:12:15.030Z,30.19
2022-07-29T10:14:45.930Z,30.04
2022-07-29T10:17:15.875Z,29.83
2022-07-29T10:19:46.337Z,29.91
2022-07-29T10:22:31.156Z,29.87
2022-07-29T10:25:08.704Z,30.08
2022-07-29T10:27:39.128Z,29.98
2022-07-29T10:30:11.096Z,29.94
2022-07-29T10:33:13.406Z,29.94
2022-07-29T10:36:10.161Z,29.84
2022-07-29T10:38:57.673Z,30.04
2022-07-29T10:41:52.417Z,30.06
2022-07-29T10:44:25.158Z,30.13
2022-07-29T10:46:56.398Z,30.07
2022-07-29T10:49:30.706Z,30.12
2022-07-29T10:52:05.989Z,30.06
2022-07-29T10:54:52.332Z,29.86
2022-07-29T10:57:57.688Z,29.68
2022-07-29T11:00:34.331Z,29.94
2022-07-29T11:03:10.801Z,30.12
2022-07-29T11:06:00.308Z,30.14
2022-07-29T11:08:32.168Z,30.28
2022-07-29T11:11:36.991Z,30.45
2022-07-29T11:14:10.210Z,30.31
2022-07-29T11:17:06.269Z,29.83
2022-07-29T11:19:40.258Z,30.06
2022-07-29T11:22:16.614Z,30.24
2022-07-29T11:24:50.193Z,30.45
2022-07-29T11:27:23.409Z,30.40
2022-07-29T11:30:04.664Z,30.75
2022-07-29T11:32:41.974Z,30.63
2022-07-29T11:35:19.251Z,30.68
2022-07-29T11:38:31.762Z,30.59
2022-07-29T11:41:27.549Z,30.48
2022-07-29T11:43:59.969Z,30.44
2022-07-29T11:46:53.948Z,30.95
2022-07-29T11:49:31.700Z,30.84
2022-07-29T11:52:04.309Z,31.03
2022-07-29T11:54:38.920Z,30.90
2022-07-29T11:57:36.630Z,30.91
2022-07-29T12:00:12.702Z,31.13
2022-07-29T12:02:48.314Z,31.56
2022-07-29T12:05:36.039Z,31.53
2022-07-29T12:08:20.989Z,31.47
2022-07-29T12:10:52.778Z,31.34
2022-07-29T12:13:37.818Z,31.24
2022-07-29T12:16:08.731Z,31.03
2022-07-29T12:18:46.009Z,30.95
2022-07-29T12:21:15.472Z,30.60
2022-07-29T12:24:01.777Z,30.52
2022-07-29T12:26:35.899Z,30.40
2022-07-29T12:29:11.240Z,30.22
2022-07-29T12:31:57.886Z,30.20
2022-07-29T12:34:32.355Z,30.16
2022-07-29T12:37:02.330Z,30.10
2022-07-29T12:39:32.790Z,29.99
2022-07-29T12:42:03.771Z,29.94
2022-07-29T12:44:48.081Z,30.05
2022-07-29T12:47:19.406Z,30.38
2022-07-29T12:49:51.645Z,30.82
2022-07-29T12:54:12.689Z,30.99
2022-07-29T12:56:44.298Z,30.97
2022-07-29T12:59:20.300Z,30.73
2022-07-29T13:01:52.277Z,30.55
2022-07-29T13:04:29.718Z,30.32
2022-07-29T13:07:06.876Z,30.23
2022-07-29T13:09:46.751Z,30.06
2022-07-29T13:12:18.092Z,29.89
2022-07-29T13:14:51.172Z,29.66
2022-07-29T13:17:24.375Z,29.42
2022-07-29T13:20:07.304Z,29.31
2022-07-29T13:22:39.150Z,29.30
2022-07-29T13:25:12.140Z,29.11
2022-07-29T13:27:42.928Z,28.98
2022-07-29T13:30:14.486Z,28.91
2022-07-29T13:32:44.096Z,28.89
2022-07-29T13:35:14.651Z,28.83
2022-07-29T13:37:45.452Z,28.83
2022-07-29T13:40:17.472Z,28.74
2022-07-29T13:42:47.582Z,28.58
2022-07-29T13:45:18.036Z,28.46
2022-07-29T13:47:49.291Z,28.66
2022-07-29T13:50:19.172Z,29.00
2022-07-29T13:52:49.890Z,29.33
2022-07-29T13:55:21.454Z,29.55
2022-07-29T13:57:51.019Z,29.91
2022-07-29T14:00:21.511Z,30.21
2022-07-29T14:02:51.516Z,30.36
2022-07-29T14:05:21.701Z,30.36
2022-07-29T14:07:51.893Z,30.22
2022-07-29T14:10:23.525Z,30.30
2022-07-29T14:12:53.585Z,30.30
2022-07-29T14:15:24.668Z,30.42
2022-07-29T14:17:54.698Z,30.13
2022-07-29T14:20:24.692Z,30.01
2022-07-29T14:22:54.639Z,29.91
2022-07-29T14:25:26.383Z,29.89
2022-07-29T14:27:56.738Z,29.94
2022-07-29T14:30:28.629Z,30.08
2022-07-29T14:32:58.554Z,30.12
2022-07-29T14:35:28.769Z,30.11
2022-07-29T14:37:58.790Z,29.83
2022-07-29T14:40:30.547Z,29.61
2022-07-29T14:43:00.629Z,29.58
2022-07-29T14:45:30.797Z,29.56
2022-07-29T14:48:01.273Z,29.46
2022-07-29T14:50:32.005Z,29.28
2022-07-29T14:53:02.564Z,29.13
2022-07-29T14:55:34.188Z,29.05
2022-07-29T14:58:10.922Z,28.95
2022-07-29T15:00:41.847Z,28.98
2022-07-29T15:03:11.915Z,28.96
2022-07-29T15:05:41.424Z,28.89
2022-07-29T15:08:11.047Z,28.79
2022-07-29T15:10:42.025Z,28.61
2022-07-29T15:13:11.697Z,28.41
2022-07-29T15:15:42.516Z,28.25
2022-07-29T15:18:12.120Z,28.14
2022-07-29T15:20:41.848Z,27.95
2022-07-29T15:23:11.444Z,27.78
2022-07-29T15:25:42.803Z,27.72
2022-07-29T15:28:12.264Z,27.68
2022-07-29T15:30:43.123Z,27.64
2022-07-29T15:33:13.027Z,27.65
2022-07-29T15:35:42.551Z,27.72
2022-07-29T15:38:12.147Z,27.89
2022-07-29T15:40:44.828Z,27.96
2022-07-29T15:43:14.992Z,27.92
2022-07-29T15:46:06.954Z,27.89
2022-07-29T15:48:36.808Z,27.80
2022-07-29T15:54:05.213Z,27.78
2022-07-29T15:56:35.746Z,27.71
2022-07-29T15:59:05.848Z,27.65
2022-07-29T16:01:36.930Z,27.57
2022-07-29T16:04:12.691Z,27.47
2022-07-29T16:06:42.727Z,27.45
2022-07-29T16:09:14.856Z,27.44
2022-07-29T16:11:44.969Z,27.44
2022-07-29T16:14:15.284Z,27.42
2022-07-29T16:16:45.655Z,27.35
2022-07-29T16:19:15.752Z,27.32
2022-07-29T16:21:45.828Z,27.30
2022-07-29T16:24:17.332Z,27.24
2022-07-29T16:26:47.254Z,27.14
2022-07-29T16:29:18.512Z,27.09
2022-07-29T16:31:48.430Z,27.05
2022-07-29T16:34:18.392Z,27.02
2022-07-29T16:36:48.455Z,26.91
2022-07-29T16:39:19.729Z,26.83
2022-07-29T16:41:49.746Z,26.72
2022-07-29T16:44:19.600Z,26.59
2022-07-29T16:46:49.628Z,26.45
2022-07-29T16:49:20.025Z,26.23
2022-07-29T16:51:50.028Z,25.99
2022-07-29T16:54:21.577Z,25.78
2022-07-29T16:56:51.509Z,25.62
2022-07-29T16:59:21.404Z,25.46
2022-07-29T17:01:51.837Z,25.33
2022-07-29T17:04:22.936Z,25.24
2022-07-29T17:06:53.105Z,25.11
2022-07-29T17:09:24.495Z,24.99
2022-07-29T17:11:55.225Z,24.86
2022-07-29T17:14:28.032Z,24.77
2022-07-29T17:17:01.634Z,24.69
2022-07-29T17:19:36.571Z,24.56
2022-07-29T17:22:15.626Z,24.49
2022-07-29T17:24:51.272Z,24.38
2022-07-29T17:27:21.696Z,24.25
2022-07-29T17:29:51.646Z,24.16
2022-07-29T17:32:21.644Z,24.12
2022-07-29T17:34:51.849Z,23.95
2022-07-29T17:37:22.268Z,23.83
2022-07-29T17:39:57.317Z,23.81
2022-07-29T17:42:30.054Z,23.74
2022-07-29T17:45:00.150Z,23.74
2022-07-29T17:47:30.093Z,23.72
2022-07-29T17:50:00.119Z,23.59
2022-07-29T17:52:30.026Z,23.41
2022-07-29T17:55:01.687Z,23.27
2022-07-29T17:57:31.727Z,23.19
2022-07-29T18:00:01.637Z,23.16
2022-07-29T18:02:31.757Z,23.07
2022-07-29T18:05:01.916Z,22.94
2022-07-29T18:07:31.767Z,22.90
2022-07-29T18:10:03.477Z,22.87
2022-07-29T18:12:33.406Z,22.80
2022-07-29T18:15:03.349Z,22.77
2022-07-29T18:17:34.480Z,22.68
2022-07-29T18:20:23.169Z,22.63
2022-07-29T18:22:53.084Z,22.60
2022-07-29T18:25:24.751Z,22.58
2022-07-29T18:27:59.883Z,22.61
2022-07-29T18:30:31.344Z,22.60
2022-07-29T18:36:04.240Z,22.67
2022-07-29T18:38:42.429Z,22.65
2022-07-29T18:41:13.769Z,22.62
2022-07-29T18:43:43.733Z,22.63
2022-07-29T18:46:13.936Z,22.70
2022-07-29T18:48:44.265Z,22.74
2022-07-29T18:54:02.746Z,22.87
2022-07-29T18:56:32.607Z,22.91
2022-07-29T18:59:02.688Z,22.94
2022-07-29T19:01:32.858Z,22.96
2022-07-29T19:04:03.212Z,22.98
2022-07-29T19:06:33.195Z,23.02
2022-07-29T19:09:04.828Z,23.08
2022-07-29T19:11:34.672Z,23.12
2022-07-29T19:14:05.152Z,23.12
2022-07-29T19:16:35.245Z,23.13
2022-07-29T19:19:05.969Z,23.13
2022-07-29T19:21:36.292Z,23.14
2022-07-29T19:24:13.722Z,23.15
2022-07-29T19:26:47.099Z,23.10
2022-07-29T19:29:17.710Z,23.07
2022-07-29T19:31:47.628Z,23.08
2022-07-29T19:34:17.596Z,23.10
2022-07-29T19:36:47.713Z,23.12
2022-07-29T19:39:19.166Z,23.11
2022-07-29T19:42:05.824Z,23.08
2022-07-29T19:44:35.947Z,23.10
2022-07-29T19:47:05.828Z,23.09
2022-07-29T19:49:38.134Z,23.10
2022-07-29T19:52:09.024Z,23.12
2022-07-29T19:54:40.590Z,23.14
2022-07-29T19:57:10.408Z,23.13
2022-07-29T19:59:40.710Z,23.16
2022-07-29T20:02:12.611Z,23.15
2022-07-29T20:04:42.386Z,23.12
2022-07-29T20:07:13.558Z,23.10
2022-07-29T20:09:46.263Z,23.08
2022-07-29T20:12:16.223Z,23.02
2022-07-29T20:14:46.168Z,22.95
2022-07-29T20:17:16.207Z,22.94
2022-07-29T20:19:46.228Z,22.97
2022-07-29T20:22:21.002Z,22.98
2022-07-29T20:24:52.888Z,23.01
2022-07-29T20:27:22.852Z,23.03
2022-07-29T20:29:52.786Z,23.04
2022-07-29T20:32:23.272Z,23.04
2022-07-29T20:34:53.206Z,23.02
2022-07-29T20:37:23.045Z,22.93
2022-07-29T20:39:54.574Z,22.88
2022-07-29T20:42:24.365Z,22.85
2022-07-29T20:44:54.327Z,22.83
2022-07-29T20:47:24.328Z,22.80
2022-07-29T20:49:54.555Z,22.77
2022-07-29T20:52:24.465Z,22.72
2022-07-29T20:54:55.868Z,22.70
2022-07-29T20:57:39.379Z,22.61
2022-07-29T21:00:12.516Z,22.43
2022-07-29T21:02:42.200Z,22.22
2022-07-29T21:05:12.949Z,22.06
2022-07-29T21:07:43.092Z,21.91
2022-07-29T21:10:14.609Z,21.79
2022-07-29T21:12:44.526Z,21.72
2022-07-29T21:15:16.607Z,21.66
2022-07-29T21:17:48.513Z,21.54
2022-07-29T21:20:20.876Z,21.38
2022-07-29T21:22:50.910Z,21.38
2022-07-29T21:25:22.370Z,21.32
2022-07-29T21:28:09.377Z,21.23
2022-07-29T21:30:39.530Z,21.17
2022-07-29T21:33:09.573Z,21.12
2022-07-29T21:36:14.884Z,21.00
2022-07-29T21:38:30.333Z,20.92
2022-07-29T21:41:02.209Z,20.81
2022-07-29T21:43:32.490Z,20.72
2022-07-29T21:46:03.547Z,20.56
2022-07-29T21:48:33.405Z,20.35
2022-07-29T21:54:02.407Z,20.14
2022-07-29T21:56:32.892Z,19.93
2022-07-29T21:59:02.792Z,19.84
2022-07-29T22:01:39.335Z,19.81
2022-07-29T22:04:09.893Z,19.78
2022-07-29T22:06:39.963Z,19.72
2022-07-29T22:09:11.537Z,19.70
2022-07-29T22:11:42.309Z,19.70
2022-07-29T22:14:12.698Z,19.65
2022-07-29T22:16:42.973Z,19.60
2022-07-29T22:19:13.070Z,19.43
2022-07-29T22:21:43.866Z,19.30
2022-07-29T22:24:15.309Z,19.14
2022-07-29T22:26:45.168Z,19.12
2022-07-29T22:29:17.909Z,19.08
2022-07-29T22:31:47.913Z,19.01
2022-07-29T22:34:18.229Z,18.82
2022-07-29T22:36:48.047Z,18.66
2022-07-29T22:39:19.589Z,18.57
2022-07-29T22:41:49.547Z,18.60
2022-07-29T22:44:19.623Z,18.56
2022-07-29T22:46:49.468Z,18.65
2022-07-29T22:49:19.461Z,18.61
2022-07-29T22:51:49.390Z,18.59
2022-07-29T22:54:21.008Z,18.60
2022-07-29T22:56:50.896Z,18.65
2022-07-29T22:59:22.428Z,18.55
2022-07-29T23:01:52.258Z,18.50
2022-07-29T23:04:24.114Z,18.40
2022-07-29T23:06:54.126Z,18.30
2022-07-29T23:09:25.593Z,18.24
2022-07-29T23:11:55.426Z,18.17
2022-07-29T23:14:25.406Z,17.97
2022-07-29T23:16:55.348Z,17.75
2022-07-29T23:19:25.319Z,17.54
2022-07-29T23:21:55.268Z,17.44
2022-07-29T23:24:26.689Z,17.33
2022-07-29T23:26:56.645Z,17.35
2022-07-29T23:29:26.724Z,17.43
2022-07-29T23:31:56.551Z,17.47
2022-07-29T23:34:26.628Z,17.34
2022-07-29T23:36:56.537Z,17.36
2022-07-29T23:39:28.127Z,17.36
2022-07-29T23:41:58.114Z,17.41
2022-07-29T23:44:28.230Z,17.15
2022-07-29T23:46:58.475Z,17.15
2022-07-29T23:49:28.731Z,17.08
2022-07-29T23:51:58.690Z,16.98
2022-07-29T23:54:30.126Z,16.98
2022-07-29T23:57:00.468Z,16.87
2022-07-29T23:59:30.583Z,16.90
